Current Weather

Bremerton Ntl

Bremerton, Washington (KPWT)

Report from: Wednesday, April 24, 2024 11:09 AM PDT
Current time: Wednesday, April 24, 2024 11:38 AM PDT

Nearby weather – Weather history – Daily summaries
Weather forecast

Temperature10.0°C (50.0°F)
Wind chill8.0°C (46.3°F)
Dew point9.0°C (48.2°F)
Winds 8 kts (4.1 m/s, 9.2 mph) South (180°)
Visibility10 mi. (16.1 km)
Clouds Scattered clouds 700 ft. (213 m)
Ceiling: Overcast 1,200 ft. (366 m)
Altimeter30.06 in.Hg (1018 mB)
Relative humidity94 %
Density altitude-594 ft. (-181 m)
Remarks Fully automated report
Automated weather observing station with precipitation discriminator
Flight conditions Marginal Visual Meteorological Conditions
Raw dataKPWT 241809Z AUTO 18008KT 10SM SCT007 OVC012 10/09 A3006 RMK AO2
An error has occurred. This application may no longer respond until reloaded. Reload 🗙